createdAt,value
2019-02-03T00:01:28.415Z,170.97
2019-02-03T00:04:07.727Z,159.43
2019-02-03T00:06:47.760Z,189.77
2019-02-03T00:09:27.672Z,187.43
2019-02-03T00:12:07.059Z,171.23
2019-02-03T00:14:47.026Z,174.27
2019-02-03T00:17:26.237Z,175.67
2019-02-03T00:20:06.243Z,160.80
2019-02-03T00:22:45.483Z,156.13
2019-02-03T00:25:25.453Z,171.53
2019-02-03T00:28:05.405Z,153.97
2019-02-03T00:30:45.467Z,187.50
2019-02-03T00:33:24.719Z,172.83
2019-02-03T00:36:04.739Z,191.57
2019-02-03T00:38:45.142Z,174.63
2019-02-03T00:41:25.056Z,187.40
2019-02-03T00:44:05.008Z,173.30
2019-02-03T00:46:45.276Z,185.00
2019-02-03T00:49:25.323Z,155.93
2019-02-03T00:52:04.433Z,190.80
2019-02-03T00:54:44.541Z,183.80
2019-02-03T00:57:23.927Z,193.50
2019-02-03T01:00:03.244Z,175.10
2019-02-03T01:02:43.116Z,176.87
2019-02-03T01:05:23.118Z,179.47
2019-02-03T01:08:03.193Z,186.80
2019-02-03T01:10:43.467Z,191.63
2019-02-03T01:13:22.592Z,175.40
2019-02-03T01:16:02.623Z,175.90
2019-02-03T01:18:42.677Z,186.63
2019-02-03T01:21:22.012Z,163.10
2019-02-03T01:24:02.238Z,162.03
2019-02-03T01:26:42.152Z,172.97
2019-02-03T01:29:21.329Z,179.43
2019-02-03T01:32:00.422Z,167.43
2019-02-03T01:34:40.450Z,171.30
2019-02-03T01:37:24.056Z,192.30
2019-02-03T01:40:03.327Z,167.90
2019-02-03T01:42:43.154Z,165.00
2019-02-03T01:45:23.220Z,175.30
2019-02-03T01:48:02.273Z,165.47
2019-02-03T01:50:41.338Z,171.83
2019-02-03T01:53:20.496Z,146.53
2019-02-03T01:56:00.607Z,175.07
2019-02-03T01:58:40.634Z,164.57
2019-02-03T02:01:20.744Z,156.70
2019-02-03T02:03:59.889Z,170.80
2019-02-03T02:06:39.017Z,154.03
2019-02-03T02:09:18.863Z,158.20
2019-02-03T02:11:58.937Z,158.87
2019-02-03T02:14:38.197Z,155.07
2019-02-03T02:17:18.215Z,156.60
2019-02-03T02:19:57.264Z,161.47
2019-02-03T02:22:37.531Z,141.43
2019-02-03T02:25:17.408Z,162.90
2019-02-03T02:27:57.365Z,151.30
2019-02-03T02:30:37.359Z,140.07
2019-02-03T02:33:17.448Z,155.97
2019-02-03T02:35:56.543Z,163.87
2019-02-03T02:38:36.666Z,140.10
2019-02-03T02:41:15.931Z,160.50
2019-02-03T02:43:55.864Z,139.07
2019-02-03T02:46:35.970Z,142.63
2019-02-03T02:49:15.080Z,145.93
2019-02-03T02:51:55.072Z,142.73
2019-02-03T02:54:35.129Z,135.70
2019-02-03T02:57:14.188Z,144.37
2019-02-03T02:59:54.398Z,149.43
2019-02-03T03:02:34.299Z,163.70
2019-02-03T03:05:14.297Z,166.10
2019-02-03T03:07:53.417Z,155.53
2019-02-03T03:10:37.352Z,179.30
2019-02-03T03:13:16.727Z,138.50
2019-02-03T03:15:56.703Z,155.27
2019-02-03T03:18:36.547Z,148.07
2019-02-03T03:21:15.700Z,167.77
2019-02-03T03:23:55.187Z,156.57
2019-02-03T03:26:35.032Z,177.57
2019-02-03T03:29:14.214Z,165.80
2019-02-03T03:31:54.443Z,160.77
2019-02-03T03:34:34.069Z,166.67
2019-02-03T03:37:13.224Z,165.77
2019-02-03T03:39:52.312Z,163.77
2019-02-03T03:42:32.552Z,161.33
2019-02-03T03:45:11.764Z,149.73
2019-02-03T03:47:51.839Z,162.80
2019-02-03T03:50:31.821Z,146.03
2019-02-03T03:53:11.161Z,160.40
2019-02-03T03:55:50.331Z,149.30
2019-02-03T03:58:30.285Z,169.73
2019-02-03T04:01:10.314Z,146.83
2019-02-03T04:03:50.338Z,150.40
2019-02-03T04:06:30.504Z,157.77
2019-02-03T04:09:09.612Z,151.20
2019-02-03T04:11:49.750Z,153.80
2019-02-03T04:14:29.782Z,151.13
2019-02-03T04:17:09.812Z,146.60
2019-02-03T04:19:49.932Z,154.73
2019-02-03T04:22:30.010Z,162.83
2019-02-03T04:25:09.248Z,141.30
2019-02-03T04:27:48.402Z,155.30
2019-02-03T04:30:28.384Z,164.73
2019-02-03T04:33:07.595Z,167.03
2019-02-03T04:35:46.709Z,144.43
2019-02-03T04:38:26.745Z,139.80
2019-02-03T04:41:07.540Z,158.57
2019-02-03T04:43:46.615Z,142.13
2019-02-03T04:46:26.709Z,134.60
2019-02-03T04:49:06.371Z,143.67
2019-02-03T04:51:46.109Z,143.20
2019-02-03T04:54:26.163Z,175.77
2019-02-03T04:57:05.418Z,145.13
2019-02-03T04:59:45.423Z,154.73
2019-02-03T05:02:25.568Z,150.93
2019-02-03T05:05:05.560Z,143.57
2019-02-03T05:07:44.628Z,147.93
2019-02-03T05:10:24.638Z,139.27
2019-02-03T05:13:03.743Z,143.17
2019-02-03T05:15:42.883Z,142.93
2019-02-03T05:18:23.065Z,144.20
2019-02-03T05:21:03.061Z,148.57
2019-02-03T05:23:42.892Z,122.60
2019-02-03T05:26:23.203Z,120.87
2019-02-03T05:29:03.197Z,126.73
2019-02-03T05:31:43.132Z,130.23
2019-02-03T05:34:23.208Z,129.57
2019-02-03T05:37:03.272Z,127.00
2019-02-03T05:39:42.543Z,128.73
2019-02-03T05:42:22.468Z,138.67
2019-02-03T05:45:01.659Z,124.07
2019-02-03T05:47:41.629Z,124.30
2019-02-03T05:50:21.864Z,125.33
2019-02-03T05:53:01.666Z,120.50
2019-02-03T05:55:41.679Z,154.33
2019-02-03T05:58:21.678Z,133.83
2019-02-03T06:01:01.586Z,121.43
2019-02-03T06:03:41.519Z,132.53
2019-02-03T06:06:21.606Z,134.70
2019-02-03T06:09:00.910Z,130.33
2019-02-03T06:11:40.864Z,141.57
2019-02-03T06:14:20.850Z,121.63
2019-02-03T06:17:00.823Z,127.67
2019-02-03T06:19:41.000Z,139.23
2019-02-03T06:22:20.958Z,134.17
2019-02-03T06:25:00.043Z,135.57
2019-02-03T06:27:39.277Z,150.90
2019-02-03T06:30:19.503Z,137.87
2019-02-03T06:32:59.556Z,148.60
2019-02-03T06:35:41.643Z,134.40
2019-02-03T06:38:21.548Z,139.63
2019-02-03T06:41:00.686Z,135.73
2019-02-03T06:43:40.684Z,135.83
2019-02-03T06:46:22.715Z,137.73
2019-02-03T06:49:02.687Z,136.33
2019-02-03T06:51:42.320Z,121.47
2019-02-03T06:54:21.488Z,126.20
2019-02-03T06:57:00.794Z,117.63
2019-02-03T07:02:42.864Z,128.43
2019-02-03T07:05:22.248Z,112.33
2019-02-03T07:08:01.490Z,113.50
2019-02-03T07:10:41.356Z,122.77
2019-02-03T07:13:20.473Z,126.27
2019-02-03T07:19:39.898Z,103.33
2019-02-03T07:22:19.999Z,113.33
2019-02-03T07:25:00.102Z,101.20
2019-02-03T07:27:40.070Z,106.53
2019-02-03T07:30:19.272Z,99.47
2019-02-03T07:32:58.452Z,105.23
2019-02-03T07:35:37.611Z,97.53
2019-02-03T07:38:17.762Z,94.87
2019-02-03T07:40:56.960Z,105.23
2019-02-03T07:43:36.167Z,93.50
2019-02-03T07:46:16.223Z,103.13
2019-02-03T07:48:55.372Z,101.20
2019-02-03T07:51:35.008Z,98.80
2019-02-03T07:54:14.882Z,92.20
2019-02-03T07:56:55.034Z,67.13
2019-02-03T07:59:34.229Z,77.80
2019-02-03T08:02:13.329Z,58.90
2019-02-03T08:04:53.501Z,66.07
2019-02-03T08:07:33.506Z,69.87
2019-02-03T08:10:23.826Z,59.40
2019-02-03T08:12:53.866Z,55.53
2019-02-03T08:15:33.840Z,70.63
2019-02-03T08:18:13.776Z,61.93
2019-02-03T08:20:53.011Z,50.03
2019-02-03T08:23:32.227Z,55.83
2019-02-03T08:26:12.197Z,50.63
2019-02-03T08:28:51.363Z,52.07
2019-02-03T08:31:31.258Z,48.03
2019-02-03T08:34:11.314Z,54.43
2019-02-03T08:36:51.495Z,45.20
2019-02-03T08:39:31.389Z,41.53
2019-02-03T08:42:11.638Z,47.20
2019-02-03T08:44:50.871Z,52.90
2019-02-03T08:47:30.809Z,46.47
2019-02-03T08:50:11.015Z,46.03
2019-02-03T08:52:51.543Z,38.17
2019-02-03T08:55:31.110Z,41.20
2019-02-03T08:58:11.004Z,39.00
2019-02-03T09:00:51.147Z,40.60
2019-02-03T09:03:31.031Z,35.47
2019-02-03T09:06:10.985Z,29.83
2019-02-03T09:08:51.119Z,38.75
2019-02-03T09:11:34.566Z,27.20
2019-02-03T09:14:14.341Z,27.80
2019-02-03T09:16:54.336Z,30.23
2019-02-03T09:19:34.381Z,31.00
2019-02-03T09:22:13.745Z,29.72
2019-02-03T09:24:53.621Z,22.80
2019-02-03T09:27:33.420Z,20.93
2019-02-03T09:30:13.622Z,21.30
2019-02-03T09:32:54.650Z,19.33
2019-02-03T09:35:33.927Z,20.50
2019-02-03T09:38:13.886Z,24.37
2019-02-03T09:40:59.825Z,22.47
2019-02-03T09:43:34.415Z,19.63
2019-02-03T09:46:14.458Z,21.83
2019-02-03T09:48:54.502Z,16.93
2019-02-03T09:51:34.678Z,16.40
2019-02-03T09:54:13.800Z,16.07
2019-02-03T09:56:53.130Z,12.27
2019-02-03T09:59:33.226Z,12.00
2019-02-03T10:02:12.376Z,18.13
2019-02-03T10:04:51.685Z,13.17
2019-02-03T10:07:30.914Z,14.07
2019-02-03T10:10:10.790Z,17.30
2019-02-03T10:13:10.622Z,17.33
2019-02-03T10:15:50.054Z,13.77
2019-02-03T10:18:30.038Z,14.70
2019-02-03T10:21:09.987Z,12.43
2019-02-03T10:23:53.590Z,12.53
2019-02-03T10:29:16.172Z,13.30
2019-02-03T10:31:55.248Z,12.23
2019-02-03T10:34:35.367Z,14.20
2019-02-03T10:37:15.388Z,21.50
2019-02-03T10:43:19.818Z,14.07
2019-02-03T10:45:59.847Z,13.67
2019-02-03T10:48:39.093Z,14.60
2019-02-03T10:54:45.836Z,12.73
2019-02-03T11:00:32.968Z,12.93
2019-02-03T11:06:57.498Z,12.63
2019-02-03T11:09:57.384Z,10.80
2019-02-03T11:19:22.241Z,8.70
2019-02-03T11:22:02.212Z,10.60
2019-02-03T11:31:51.072Z,8.93
2019-02-03T11:38:11.366Z,10.40
2019-02-03T11:40:50.722Z,9.60
2019-02-03T11:43:30.846Z,14.57
2019-02-03T11:46:11.154Z,9.70
2019-02-03T11:48:50.984Z,10.27
2019-02-03T11:51:30.233Z,19.77
2019-02-03T11:54:09.549Z,15.20
2019-02-03T11:56:49.355Z,10.00
2019-02-03T11:59:29.161Z,14.43
2019-02-03T12:02:09.085Z,13.70
2019-02-03T12:04:48.229Z,14.10
2019-02-03T12:07:27.335Z,15.53
2019-02-03T12:10:07.628Z,12.43
2019-02-03T12:12:47.685Z,14.73
2019-02-03T12:25:38.514Z,15.67
2019-02-03T12:28:18.561Z,12.33
2019-02-03T12:30:58.514Z,8.10
2019-02-03T12:33:38.639Z,16.13
2019-02-03T12:36:18.767Z,16.70
2019-02-03T12:41:40.049Z,9.97
2019-02-03T12:44:20.051Z,12.27
2019-02-03T12:47:03.958Z,17.93
2019-02-03T12:49:44.074Z,15.93
2019-02-03T12:52:24.022Z,9.87
2019-02-03T12:55:03.298Z,8.23
2019-02-03T12:57:46.384Z,8.20
2019-02-03T13:00:25.242Z,10.30
2019-02-03T13:05:48.284Z,18.70
2019-02-03T13:08:27.491Z,10.37
2019-02-03T13:11:11.481Z,12.53
2019-02-03T13:14:10.488Z,12.93
2019-02-03T13:16:50.662Z,10.20
2019-02-03T13:19:30.874Z,12.17
2019-02-03T13:22:10.566Z,9.23
2019-02-03T13:25:10.418Z,10.33
2019-02-03T13:28:09.804Z,12.07
2019-02-03T13:30:53.029Z,11.40
2019-02-03T13:33:32.388Z,9.53
2019-02-03T13:39:37.522Z,8.20
2019-02-03T13:42:16.623Z,7.93
2019-02-03T13:44:56.735Z,6.97
2019-02-03T13:51:16.206Z,13.63
2019-02-03T13:54:16.097Z,9.20
2019-02-03T13:56:55.624Z,8.10
2019-02-03T13:59:35.630Z,7.23
2019-02-03T14:02:14.808Z,10.60
2019-02-03T14:05:14.662Z,8.63
2019-02-03T14:11:19.248Z,10.97
2019-02-03T14:13:59.238Z,8.03
2019-02-03T14:16:38.405Z,15.73
2019-02-03T14:19:17.510Z,13.50
2019-02-03T14:25:36.016Z,10.00
2019-02-03T14:28:15.182Z,9.23
2019-02-03T14:30:55.410Z,11.83
2019-02-03T14:33:35.535Z,10.80
2019-02-03T14:36:34.815Z,11.33
2019-02-03T14:39:14.436Z,12.70
2019-02-03T14:45:29.503Z,8.37
2019-02-03T14:48:09.575Z,9.83
2019-02-03T14:50:49.545Z,9.70
2019-02-03T14:53:29.440Z,7.33
2019-02-03T14:56:09.413Z,8.40
2019-02-03T14:58:49.429Z,7.50
2019-02-03T15:01:29.406Z,6.20
2019-02-03T15:16:58.426Z,10.23
2019-02-03T15:19:38.234Z,6.77
2019-02-03T15:32:26.836Z,7.30
2019-02-03T15:35:06.944Z,5.40
2019-02-03T15:37:47.011Z,9.80
2019-02-03T15:50:38.720Z,10.27
2019-02-03T15:53:38.496Z,11.53
2019-02-03T16:02:08.221Z,13.70
2019-02-03T16:08:06.275Z,17.93
2019-02-03T16:10:46.108Z,14.00
2019-02-03T16:13:45.815Z,26.40
2019-02-03T16:19:34.604Z,13.23
2019-02-03T16:22:34.561Z,12.53
2019-02-03T16:27:55.930Z,10.67
2019-02-03T16:30:36.116Z,16.47
2019-02-03T16:33:15.897Z,11.60
2019-02-03T16:39:17.341Z,11.53
2019-02-03T16:41:56.585Z,9.63
2019-02-03T16:44:40.552Z,11.40
2019-02-03T16:50:37.876Z,11.93
2019-02-03T16:53:17.688Z,8.33
2019-02-03T16:55:56.861Z,9.63
2019-02-03T16:58:35.964Z,11.97
2019-02-03T17:01:15.069Z,12.73
2019-02-03T17:03:55.145Z,12.87
2019-02-03T17:06:35.216Z,13.70
2019-02-03T17:09:14.997Z,13.30
2019-02-03T17:11:54.993Z,14.00
2019-02-03T17:14:34.980Z,14.77
2019-02-03T17:17:14.114Z,13.07
2019-02-03T17:19:54.266Z,15.20
2019-02-03T17:22:34.266Z,13.03
2019-02-03T17:25:17.041Z,12.87
2019-02-03T17:27:55.229Z,11.90
2019-02-03T17:30:34.424Z,13.60
2019-02-03T17:33:13.608Z,14.93
2019-02-03T17:35:54.738Z,18.30
2019-02-03T17:38:33.892Z,12.77
2019-02-03T17:41:14.031Z,13.37
2019-02-03T17:43:54.269Z,16.80
2019-02-03T17:46:34.283Z,13.10
2019-02-03T17:49:16.502Z,13.40
2019-02-03T17:51:54.832Z,14.93
2019-02-03T17:54:34.786Z,16.10
2019-02-03T17:57:14.813Z,14.35
2019-02-03T17:59:54.830Z,11.87
2019-02-03T18:02:34.954Z,12.30
2019-02-03T18:05:14.241Z,12.97
2019-02-03T18:07:54.247Z,9.80
2019-02-03T18:10:33.456Z,10.53
2019-02-03T18:13:12.920Z,14.73
2019-02-03T18:15:53.067Z,12.37
2019-02-03T18:18:33.179Z,14.97
2019-02-03T18:21:13.505Z,12.80
2019-02-03T18:23:53.306Z,12.13
2019-02-03T18:26:33.329Z,10.00
2019-02-03T18:32:17.718Z,16.23
2019-02-03T18:34:57.973Z,22.60
2019-02-03T18:37:37.981Z,12.30
2019-02-03T18:40:17.907Z,11.60
2019-02-03T18:42:57.846Z,14.00
2019-02-03T18:45:37.924Z,12.93
2019-02-03T18:48:17.115Z,11.47
2019-02-03T18:50:57.089Z,9.67
2019-02-03T18:56:20.234Z,10.30
2019-02-03T18:59:00.082Z,12.00
2019-02-03T19:01:39.998Z,15.47
2019-02-03T19:04:19.989Z,11.83
2019-02-03T19:06:59.211Z,9.83
2019-02-03T19:09:39.162Z,8.70
2019-02-03T19:12:19.109Z,11.60
2019-02-03T19:14:59.083Z,13.67
2019-02-03T19:17:38.318Z,15.40
2019-02-03T19:20:17.535Z,9.13
2019-02-03T19:22:56.787Z,13.40
2019-02-03T19:25:36.118Z,9.13
2019-02-03T19:28:15.954Z,12.77
2019-02-03T19:30:56.105Z,18.27
2019-02-03T19:33:36.295Z,14.07
2019-02-03T19:36:16.456Z,12.50
2019-02-03T19:38:56.575Z,14.07
2019-02-03T19:41:36.580Z,21.00
2019-02-03T19:44:16.282Z,23.10
2019-02-03T19:46:55.711Z,19.00
2019-02-03T19:49:46.010Z,21.27
2019-02-03T19:52:16.828Z,24.10
2019-02-03T19:54:56.973Z,20.93
2019-02-03T19:57:36.980Z,27.23
2019-02-03T20:00:16.967Z,21.80
2019-02-03T20:02:56.871Z,17.60
2019-02-03T20:05:36.851Z,17.17
2019-02-03T20:08:16.807Z,20.00
2019-02-03T20:11:15.772Z,21.17
2019-02-03T20:13:55.098Z,15.40
2019-02-03T20:16:35.105Z,13.47
2019-02-03T20:19:14.989Z,20.40
2019-02-03T20:21:55.078Z,15.47
2019-02-03T20:24:34.274Z,14.97
2019-02-03T20:27:14.363Z,17.53
2019-02-03T20:29:54.444Z,15.30
2019-02-03T20:35:43.176Z,16.90
2019-02-03T20:38:23.276Z,12.50
2019-02-03T20:41:03.331Z,11.30
2019-02-03T20:43:43.254Z,12.73
2019-02-03T20:46:23.320Z,13.13
2019-02-03T20:49:03.211Z,14.23
2019-02-03T20:51:43.230Z,11.00
2019-02-03T20:54:22.413Z,15.37
2019-02-03T20:57:01.715Z,12.17
2019-02-03T20:59:41.767Z,12.30
2019-02-03T21:02:21.883Z,16.00
2019-02-03T21:05:01.915Z,15.40
2019-02-03T21:07:41.892Z,16.47
2019-02-03T21:10:22.085Z,14.20
2019-02-03T21:13:10.851Z,14.10
2019-02-03T21:15:44.270Z,14.27
2019-02-03T21:18:24.113Z,13.93
2019-02-03T21:21:04.127Z,14.70
2019-02-03T21:23:44.330Z,13.77
2019-02-03T21:26:24.369Z,15.33
2019-02-03T21:29:04.322Z,17.33
2019-02-03T21:31:44.363Z,13.90
2019-02-03T21:34:24.402Z,13.87
2019-02-03T21:37:08.219Z,18.43
2019-02-03T21:39:48.384Z,20.83
2019-02-03T21:45:43.926Z,15.80
2019-02-03T21:48:14.727Z,17.60
2019-02-03T21:50:55.353Z,14.83
2019-02-03T21:57:14.635Z,16.90
2019-02-03T21:59:54.640Z,24.37
2019-02-03T22:02:34.710Z,20.17
2019-02-03T22:05:14.869Z,23.70
2019-02-03T22:07:53.949Z,23.23
2019-02-03T22:10:33.151Z,21.27
2019-02-03T22:13:13.564Z,18.57
2019-02-03T22:15:55.914Z,21.73
2019-02-03T22:18:35.539Z,22.23
2019-02-03T22:21:15.488Z,25.30
2019-02-03T22:23:55.569Z,21.70
2019-02-03T22:26:35.739Z,24.47
2019-02-03T22:29:15.773Z,25.00
2019-02-03T22:31:55.259Z,21.13
2019-02-03T22:37:43.654Z,19.97
2019-02-03T22:40:23.565Z,17.50
2019-02-03T22:43:03.657Z,21.70
2019-02-03T22:45:43.612Z,19.23
2019-02-03T22:48:22.762Z,19.80
2019-02-03T22:51:02.922Z,16.90
2019-02-03T22:53:42.201Z,17.30
2019-02-03T22:56:22.306Z,17.27
2019-02-03T22:59:01.444Z,22.00
2019-02-03T23:01:41.415Z,20.10
2019-02-03T23:04:20.663Z,15.20
2019-02-03T23:07:00.802Z,16.60
2019-02-03T23:09:40.916Z,17.27
2019-02-03T23:12:20.860Z,37.27
2019-02-03T23:15:00.040Z,18.83
2019-02-03T23:17:40.021Z,17.10
2019-02-03T23:20:19.040Z,17.00
2019-02-03T23:22:58.262Z,18.57
2019-02-03T23:25:37.568Z,16.67
2019-02-03T23:28:21.017Z,16.40
2019-02-03T23:31:00.405Z,20.13
2019-02-03T23:33:40.348Z,15.33
2019-02-03T23:36:20.363Z,16.87
2019-02-03T23:38:59.618Z,18.00
2019-02-03T23:41:39.579Z,18.97
2019-02-03T23:47:27.219Z,14.60
2019-02-03T23:50:07.304Z,20.47
2019-02-03T23:53:07.136Z,18.03
2019-02-03T23:55:46.697Z,18.13
2019-02-03T23:58:25.840Z,22.30
